Haukasen, Norway

1:04 AM CEST on July 23, 2014 (GMT +0200)
Kaalsete (ISOGNOGF9) Elev 1580 ft | 61.03 °N, 6.53 °E | Change Station

Current weather conditions updated 25 seconds ago

Clear
Clear
63.0 °F
Feels Like 63.0 °F
N
5.0
Wind Variable Wind from SW
Gusts 8.0 mph

Today is forecast to be Much Warmer than yesterday.

Today
High -- | Low -- °F
--% Chance of Precip.
Yesterday
High -- | Low -- °F
Precip. -- in
4:41 AM 10:32 PM
Waning Crescent, 14% visible
Pressure 30.33 in
Visibility -9999.0 miles
Clouds
Dew Point 56 °F
Humidity 79%
Rainfall 0.00 in
Snow Depth Not available.
UV 0.0 out of 12
Pollen Not available.
Air Quality Not available.
Flu Activity Not available.
METAR ENBL 222020Z 36005KT CAVOK 19/13 Q1027

More Conditions Fewer Conditions

Pressure 30.33 in
Visibility -9999.0 miles
Clouds
Dew Point 56 °F
Humidity 79%
Rainfall 0.00 in
Snow Depth Not available.
UV 0.0 out of 12
Pollen Not available.
Air Quality Not available.
Flu Activity Not available.
METAR ENBL 222020Z 36005KT CAVOK 19/13 Q1027

More Conditions Fewer Conditions

10-Day Weather Forecast

Almanac

Astronomy

Jul. 23, 2014 Rise Set
Actual Time 4:41 AM CEST 10:32 PM CEST
Civil Twilight 3:23 AM CEST 11:49 PM CEST
Nautical Twilight Sun does not rise Sun does not rise
Astronomical Twilight Sun does not rise Sun does not rise
Moon 1:59 AM CEST (7/23) 7:39 PM CEST (7/23)
Length of Visible Light 20h 25m
Length of Day
17h 51m
Tomorrow will be 4m 46s shorter.
Waning Crescent, 14% of the Moon is Illuminated
Jul 22
Waning Crescent
Jul 26
New
Aug 3
First Quarter
Aug 10
Full
Aug 17
Last Quarter

Yesterday's Extremes

Country Highs Country Lows

Community

WunderPhotos

Upload Photos

1,736,391 photos uploaded!

Nearby

Snow Depth

Not available.

Earthquake Activity

City Distance Mag. Time & Date
No recent earthquake activity has been reported nearby.
Minimum magnitude displayed is 2.5.

Coastal Water Temperatures

Place Temperature
No Stations Reporting

Nearby Weather Stations

Station Location Temp. Dew Point Humidity Wind Precip. Elev Updated Type
Kaalsete, Vik I Sogn 63.0 °F 56 °F 79% SW  at  5.0 mph 0.00 in / hr 1580 ft 1:03 AM CEST Normal
Stedje, Sogndal 65.7 °F 44 °F 45% WSW  at  0.0 mph 0.00 in / hr 150 ft 1:02 AM CEST Normal
Borgund Plassen, Laerdal 58.5 °F 56 °F 91% NW  at  0.0 mph 0.00 in / hr 1345 ft 12:57 AM CEST Normal
Henjum, Sognefjorden, LEIKANGER 67.3 °F 57 °F 69% North  at  3.6 mph 0.00 in / hr 225 ft 1:03 AM CEST Normal
LAERDAL 64.8 °F 45 °F 49% East  at  0.0 mph 0.00 in / hr 2 ft 1:03 AM CEST Normal
Saltkjelen, LAERDAL 66.2 °F 29 °F 25% NE  at  4.0 mph 0.00 in / hr 240 ft 1:03 AM CEST Normal
Voll, Vik I Sogn 60.3 °F 58 °F 91% SSE  at  0.0 mph 0.00 in / hr 180 ft 1:02 AM CEST Normal

Show More Stations Show Fewer Stations